createdAt,value
2022-12-01T00:01:51.500Z,26.60
2022-12-01T00:04:20.954Z,26.27
2022-12-01T00:06:50.693Z,26.30
2022-12-01T00:09:37.974Z,28.23
2022-12-01T00:12:09.461Z,27.03
2022-12-01T00:14:39.204Z,26.20
2022-12-01T00:17:10.115Z,26.93
2022-12-01T00:19:39.849Z,25.73
2022-12-01T00:22:11.439Z,24.57
2022-12-01T00:27:09.994Z,27.10
2022-12-01T00:29:39.757Z,25.57
2022-12-01T00:32:11.418Z,24.82
2022-12-01T00:34:41.179Z,26.10
2022-12-01T00:37:10.913Z,23.73
2022-12-01T00:39:40.675Z,25.70
2022-12-01T00:42:13.452Z,26.12
2022-12-01T00:44:42.997Z,25.23
2022-12-01T00:47:12.724Z,26.47
2022-12-01T00:49:44.402Z,27.27
2022-12-01T00:52:15.768Z,27.93
2022-12-01T00:54:45.901Z,27.77
2022-12-01T00:57:15.930Z,27.52
2022-12-01T00:59:47.504Z,29.65
2022-12-01T01:02:17.226Z,28.53
2022-12-01T01:04:47.047Z,27.37
2022-12-01T01:07:16.946Z,28.30
2022-12-01T01:09:46.980Z,27.80
2022-12-01T01:12:16.890Z,28.80
2022-12-01T01:14:46.620Z,27.43
2022-12-01T01:17:16.463Z,27.20
2022-12-01T01:19:46.954Z,28.77
2022-12-01T01:22:16.853Z,26.45
2022-12-01T01:24:46.608Z,29.17
2022-12-01T01:27:16.536Z,28.13
2022-12-01T01:29:47.054Z,27.75
2022-12-01T01:32:16.992Z,28.57
2022-12-01T01:34:47.131Z,28.67
2022-12-01T01:37:16.873Z,28.10
2022-12-01T01:39:47.066Z,26.80
2022-12-01T01:42:19.728Z,27.65
2022-12-01T01:44:57.597Z,28.25
2022-12-01T01:47:39.197Z,27.85
2022-12-01T01:50:14.162Z,27.15
2022-12-01T01:52:46.821Z,27.93
2022-12-01T01:55:17.196Z,28.25
2022-12-01T01:57:47.695Z,28.03
2022-12-01T02:00:20.412Z,28.93
2022-12-01T02:02:51.306Z,28.57
2022-12-01T02:05:24.279Z,26.20
2022-12-01T02:07:56.937Z,25.63
2022-12-01T02:10:35.276Z,27.73
2022-12-01T02:13:13.381Z,27.73
2022-12-01T02:16:04.337Z,27.27
2022-12-01T02:18:42.716Z,27.40
2022-12-01T02:21:39.751Z,26.27
2022-12-01T02:24:39.449Z,26.80
2022-12-01T02:27:24.254Z,26.93
2022-12-01T02:30:13.299Z,25.87
2022-12-01T02:32:48.780Z,26.57
2022-12-01T02:35:27.175Z,26.00
2022-12-01T02:38:11.445Z,25.13
2022-12-01T02:40:53.067Z,25.83
2022-12-01T02:43:45.973Z,25.37
2022-12-01T02:46:30.093Z,25.07
2022-12-01T02:49:02.579Z,25.60
2022-12-01T02:51:34.572Z,26.30
2022-12-01T02:54:07.166Z,27.67
2022-12-01T02:56:36.938Z,27.17
2022-12-01T02:59:14.374Z,26.37
2022-12-01T03:02:11.238Z,26.90
2022-12-01T03:04:55.916Z,25.02
2022-12-01T03:07:34.545Z,27.23
2022-12-01T03:13:25.882Z,28.02
2022-12-01T03:16:04.358Z,28.60
2022-12-01T03:18:45.895Z,28.67
2022-12-01T03:21:33.703Z,28.83
2022-12-01T03:24:09.268Z,26.45
2022-12-01T03:26:40.646Z,28.35
2022-12-01T03:29:13.800Z,28.00
2022-12-01T03:31:53.054Z,27.60
2022-12-01T03:34:37.482Z,27.80
2022-12-01T03:37:13.140Z,25.77
2022-12-01T03:39:45.791Z,28.60
2022-12-01T03:42:30.057Z,27.40
2022-12-01T03:45:02.882Z,28.27
2022-12-01T03:47:34.896Z,27.33
2022-12-01T03:50:10.174Z,26.43
2022-12-01T03:52:52.063Z,28.42
2022-12-01T03:55:27.342Z,27.98
2022-12-01T03:58:02.771Z,27.77
2022-12-01T04:00:33.230Z,28.98
2022-12-01T04:03:04.461Z,27.57
2022-12-01T04:05:35.768Z,26.85
2022-12-01T04:08:08.175Z,27.50
2022-12-01T04:10:37.966Z,28.63
2022-12-01T04:13:09.358Z,27.80
2022-12-01T04:15:39.308Z,27.10
2022-12-01T04:18:10.926Z,28.23
2022-12-01T04:20:40.679Z,26.20
2022-12-01T04:23:10.701Z,28.70
2022-12-01T04:25:40.439Z,28.33
2022-12-01T04:28:11.185Z,28.47
2022-12-01T04:30:40.941Z,29.17
2022-12-01T04:33:10.680Z,28.97
2022-12-01T04:35:40.451Z,28.47
2022-12-01T04:38:11.664Z,29.00
2022-12-01T04:40:41.710Z,29.70
2022-12-01T04:43:11.742Z,28.35
2022-12-01T04:45:41.494Z,29.33
2022-12-01T04:48:11.585Z,29.08
2022-12-01T04:50:42.372Z,29.27
2022-12-01T04:53:12.124Z,29.53
2022-12-01T04:55:42.157Z,31.52
2022-12-01T04:58:11.885Z,30.77
2022-12-01T05:00:41.981Z,29.63
2022-12-01T05:03:15.012Z,28.93
2022-12-01T05:05:43.239Z,29.50
2022-12-01T05:08:13.277Z,28.10
2022-12-01T05:10:43.017Z,31.43
2022-12-01T05:13:12.760Z,28.90
2022-12-01T05:15:42.526Z,26.97
2022-12-01T05:18:11.985Z,28.70
2022-12-01T05:20:59.436Z,28.10
2022-12-01T05:23:31.490Z,28.00
2022-12-01T05:26:01.793Z,28.20
2022-12-01T05:28:31.627Z,27.13
2022-12-01T05:31:01.847Z,27.10
2022-12-01T05:33:31.761Z,27.97
2022-12-01T05:36:01.499Z,26.90
2022-12-01T05:38:31.547Z,27.37
2022-12-01T05:41:01.290Z,26.50
2022-12-01T05:43:31.069Z,28.03
2022-12-01T05:46:00.790Z,26.90
2022-12-01T05:48:30.651Z,25.03
2022-12-01T05:51:00.477Z,27.03
2022-12-01T05:53:30.220Z,26.73
2022-12-01T05:55:59.976Z,25.93
2022-12-01T05:58:29.907Z,26.57
2022-12-01T06:01:00.040Z,26.10
2022-12-01T06:03:29.907Z,26.23
2022-12-01T06:05:59.742Z,26.93
2022-12-01T06:08:29.569Z,25.70
2022-12-01T06:10:59.489Z,25.20
2022-12-01T06:13:29.552Z,26.15
2022-12-01T06:16:02.494Z,26.17
2022-12-01T06:18:34.576Z,27.07
2022-12-01T06:21:05.669Z,26.73
2022-12-01T06:23:35.651Z,25.93
2022-12-01T06:26:06.717Z,27.13
2022-12-01T06:28:36.444Z,27.33
2022-12-01T06:31:06.335Z,27.63
2022-12-01T06:33:36.073Z,28.13
2022-12-01T06:36:07.811Z,26.53
2022-12-01T06:38:38.521Z,27.20
2022-12-01T06:41:08.247Z,25.63
2022-12-01T06:43:38.844Z,26.77
2022-12-01T06:46:09.794Z,26.50
2022-12-01T06:48:39.563Z,27.93
2022-12-01T06:51:11.051Z,26.83
2022-12-01T06:53:40.935Z,26.87
2022-12-01T06:56:12.102Z,26.93
2022-12-01T06:58:42.040Z,27.03
2022-12-01T07:01:13.079Z,28.45
2022-12-01T07:03:43.076Z,26.30
2022-12-01T07:06:12.859Z,27.10
2022-12-01T07:08:42.653Z,27.53
2022-12-01T07:11:15.407Z,27.80
2022-12-01T07:13:45.894Z,26.03
2022-12-01T07:16:15.962Z,28.27
2022-12-01T07:18:45.788Z,26.93
2022-12-01T07:21:16.631Z,27.67
2022-12-01T07:23:46.442Z,28.20
2022-12-01T07:26:18.452Z,26.90
2022-12-01T07:28:48.265Z,28.10
2022-12-01T07:31:20.171Z,26.17
2022-12-01T07:33:50.017Z,29.07
2022-12-01T07:36:19.467Z,28.50
2022-12-01T07:38:49.208Z,28.13
2022-12-01T07:41:20.452Z,28.97
2022-12-01T07:43:51.203Z,28.63
2022-12-01T07:46:24.420Z,28.87
2022-12-01T07:48:55.969Z,28.73
2022-12-01T07:51:27.092Z,29.20
2022-12-01T07:53:56.900Z,28.20
2022-12-01T07:56:26.644Z,27.90
2022-12-01T07:58:56.742Z,28.13
2022-12-01T08:01:27.358Z,30.12
2022-12-01T08:03:59.339Z,29.20
2022-12-01T08:06:29.146Z,29.18
2022-12-01T08:08:58.974Z,30.53
2022-12-01T08:11:29.863Z,29.63
2022-12-01T08:13:59.595Z,30.47
2022-12-01T08:16:30.827Z,29.97
2022-12-01T08:19:00.864Z,30.12
2022-12-01T08:21:30.605Z,30.60
2022-12-01T08:24:00.448Z,30.80
2022-12-01T08:26:30.195Z,31.07
2022-12-01T08:29:00.304Z,31.67
2022-12-01T08:31:33.289Z,32.33
2022-12-01T08:34:04.666Z,30.47
2022-12-01T08:36:36.057Z,31.30
2022-12-01T08:39:07.673Z,32.77
2022-12-01T08:41:37.428Z,32.40
2022-12-01T08:44:10.852Z,32.33
2022-12-01T08:46:40.814Z,30.70
2022-12-01T08:49:10.920Z,31.30
2022-12-01T08:51:40.755Z,32.03
2022-12-01T08:54:12.727Z,31.80
2022-12-01T08:56:45.022Z,33.07
2022-12-01T08:59:15.045Z,31.87
2022-12-01T09:01:53.712Z,31.53
2022-12-01T09:04:26.128Z,32.80
2022-12-01T09:06:57.989Z,30.33
2022-12-01T09:09:29.674Z,32.47
2022-12-01T09:11:59.413Z,30.37
2022-12-01T09:14:29.144Z,30.43
2022-12-01T09:16:58.625Z,27.65
2022-12-01T09:19:28.662Z,27.95
2022-12-01T09:21:58.548Z,26.87
2022-12-01T09:24:28.799Z,28.77
2022-12-01T09:27:00.906Z,28.87
2022-12-01T09:29:31.690Z,28.87
2022-12-01T09:32:01.683Z,29.30
2022-12-01T09:34:31.561Z,29.07
2022-12-01T09:37:01.320Z,27.70
2022-12-01T09:39:31.137Z,28.10
2022-12-01T09:42:09.145Z,29.23
2022-12-01T09:44:52.923Z,27.83
2022-12-01T09:47:28.441Z,27.60
2022-12-01T09:50:10.108Z,29.13
2022-12-01T09:52:46.017Z,30.10
2022-12-01T09:55:18.010Z,29.48
2022-12-01T09:57:55.717Z,28.20
2022-12-01T10:00:28.136Z,29.60
2022-12-01T10:03:20.316Z,30.47
2022-12-01T10:06:25.871Z,29.93
2022-12-01T10:08:30.582Z,29.90
2022-12-01T10:11:03.377Z,29.93
2022-12-01T10:13:34.651Z,28.60
2022-12-01T10:16:08.862Z,29.85
2022-12-01T10:18:59.496Z,28.27
2022-12-01T10:21:40.846Z,30.13
2022-12-01T10:24:29.924Z,27.73
2022-12-01T10:27:23.117Z,29.13
2022-12-01T10:30:11.292Z,29.33
2022-12-01T10:32:58.879Z,28.27
2022-12-01T10:35:33.316Z,29.10
2022-12-01T10:38:10.355Z,28.27
2022-12-01T10:40:41.786Z,29.03
2022-12-01T10:43:12.432Z,30.52
2022-12-01T10:45:45.454Z,30.20
2022-12-01T10:48:21.064Z,28.77
2022-12-01T10:50:56.296Z,29.42
2022-12-01T10:53:29.005Z,27.50
2022-12-01T10:56:16.879Z,27.77
2022-12-01T10:58:55.221Z,27.58
2022-12-01T11:01:32.071Z,28.83
2022-12-01T11:04:39.546Z,27.07
2022-12-01T11:07:12.522Z,27.50
2022-12-01T11:09:42.411Z,26.03
2022-12-01T11:12:16.552Z,26.85
2022-12-01T11:14:54.418Z,27.33
2022-12-01T11:17:35.818Z,26.87
2022-12-01T11:20:41.063Z,27.27
2022-12-01T11:23:24.336Z,28.60
2022-12-01T11:26:06.131Z,27.90
2022-12-01T11:28:36.838Z,27.47
2022-12-01T11:31:09.339Z,28.33
2022-12-01T11:33:53.433Z,27.53
2022-12-01T11:36:40.985Z,27.60
2022-12-01T11:39:13.824Z,27.50
2022-12-01T11:41:43.568Z,27.37
2022-12-01T11:47:07.796Z,27.00
2022-12-01T11:49:27.488Z,27.47
2022-12-01T11:51:57.241Z,26.47
2022-12-01T11:54:27.923Z,25.25
2022-12-01T11:57:31.695Z,25.50
2022-12-01T11:59:30.123Z,25.93
2022-12-01T12:02:20.813Z,25.47
2022-12-01T12:04:53.630Z,23.97
2022-12-01T12:07:45.726Z,23.47
2022-12-01T12:10:25.591Z,22.60
2022-12-01T12:13:07.267Z,23.87
2022-12-01T12:18:27.067Z,23.23
2022-12-01T12:21:08.320Z,22.37
2022-12-01T12:23:53.008Z,22.00
2022-12-01T12:26:32.177Z,23.18
2022-12-01T12:29:24.125Z,22.57
2022-12-01T12:32:02.486Z,22.70
2022-12-01T12:34:43.916Z,23.50
2022-12-01T12:37:34.183Z,22.30
2022-12-01T12:43:26.799Z,23.70
2022-12-01T12:46:14.509Z,21.37
2022-12-01T12:49:18.672Z,22.67
2022-12-01T12:51:36.122Z,23.47
2022-12-01T12:54:15.020Z,23.07
2022-12-01T12:56:48.082Z,22.80
2022-12-01T12:59:32.884Z,23.67
2022-12-01T13:02:27.163Z,22.17
2022-12-01T13:04:59.791Z,22.00
2022-12-01T13:07:50.661Z,21.17
2022-12-01T13:10:43.956Z,20.52
2022-12-01T13:13:34.824Z,18.87
2022-12-01T13:16:07.101Z,17.33
2022-12-01T13:18:51.795Z,17.53
2022-12-01T13:21:23.933Z,19.27
2022-12-01T13:23:54.402Z,18.23
2022-12-01T13:26:24.553Z,18.40
2022-12-01T13:28:57.516Z,18.03
2022-12-01T13:31:27.640Z,18.10
2022-12-01T13:34:04.541Z,17.53
2022-12-01T13:36:50.442Z,17.63
2022-12-01T13:39:09.888Z,18.67
2022-12-01T13:41:40.636Z,17.53
2022-12-01T13:44:26.504Z,20.47
2022-12-01T13:47:11.257Z,18.20
2022-12-01T13:49:46.976Z,18.23
2022-12-01T13:52:26.558Z,18.17
2022-12-01T13:55:14.405Z,16.52
2022-12-01T13:58:01.979Z,16.27
2022-12-01T14:00:34.857Z,16.83
2022-12-01T14:03:19.915Z,21.20
2022-12-01T14:05:58.732Z,22.40
2022-12-01T14:08:33.937Z,22.70
2022-12-01T14:11:09.616Z,23.27
2022-12-01T14:16:52.093Z,23.95
2022-12-01T14:19:51.677Z,21.35
2022-12-01T14:22:43.471Z,20.23
2022-12-01T14:25:25.680Z,19.03
2022-12-01T14:28:04.228Z,20.87
2022-12-01T14:30:46.036Z,20.80
2022-12-01T14:33:41.381Z,21.67
2022-12-01T14:36:30.835Z,23.38
2022-12-01T14:39:03.688Z,23.67
2022-12-01T14:41:48.549Z,21.67
2022-12-01T14:44:23.811Z,22.67
2022-12-01T14:47:18.448Z,21.97
2022-12-01T14:50:06.177Z,21.93
2022-12-01T14:52:42.201Z,22.13
2022-12-01T14:55:17.827Z,22.35
2022-12-01T14:57:52.567Z,22.43
2022-12-01T15:00:25.129Z,24.27
2022-12-01T15:03:00.926Z,23.73
2022-12-01T15:08:25.614Z,22.25
2022-12-01T15:10:35.432Z,23.00
2022-12-01T15:13:17.316Z,24.20
2022-12-01T15:15:56.019Z,23.77
2022-12-01T15:18:31.624Z,23.20
2022-12-01T15:21:21.944Z,24.87
2022-12-01T15:24:03.853Z,23.20
2022-12-01T15:26:36.425Z,22.30
2022-12-01T15:29:18.996Z,23.93
2022-12-01T15:31:51.321Z,25.57
2022-12-01T15:34:29.631Z,25.77
2022-12-01T15:37:01.215Z,24.77
2022-12-01T15:39:39.731Z,26.33
2022-12-01T15:42:19.306Z,25.05
2022-12-01T15:45:00.011Z,25.37
2022-12-01T15:47:43.863Z,26.27
2022-12-01T15:50:33.580Z,25.03
2022-12-01T15:53:06.636Z,24.43
2022-12-01T15:55:39.245Z,24.50
2022-12-01T15:58:10.680Z,24.75
2022-12-01T16:00:40.666Z,26.10
2022-12-01T16:03:13.460Z,25.87
2022-12-01T16:05:45.034Z,25.93
2022-12-01T16:08:18.068Z,26.57
2022-12-01T16:11:08.000Z,25.00
2022-12-01T16:13:41.079Z,26.20
2022-12-01T16:16:39.163Z,26.07
2022-12-01T16:19:12.293Z,26.70
2022-12-01T16:22:06.912Z,27.63
2022-12-01T16:24:41.120Z,27.07
2022-12-01T16:27:28.371Z,30.27
2022-12-01T16:30:01.524Z,29.65
2022-12-01T16:32:40.735Z,31.17
2022-12-01T16:35:29.140Z,31.27
2022-12-01T16:37:59.531Z,30.45
2022-12-01T16:40:29.424Z,30.63
2022-12-01T16:42:59.484Z,29.48
2022-12-01T16:45:29.259Z,31.17
2022-12-01T16:48:00.756Z,30.60
2022-12-01T16:50:30.740Z,28.67
2022-12-01T16:53:00.762Z,28.47
2022-12-01T16:55:54.256Z,29.97
2022-12-01T16:58:24.129Z,30.55
2022-12-01T17:00:54.918Z,28.83
2022-12-01T17:03:26.679Z,29.83
2022-12-01T17:05:56.749Z,28.40
2022-12-01T17:08:26.553Z,30.17
2022-12-01T17:10:56.510Z,29.93
2022-12-01T17:13:27.022Z,30.20
2022-12-01T17:15:57.119Z,29.48
2022-12-01T17:18:27.029Z,31.97
2022-12-01T17:21:05.582Z,31.10
2022-12-01T17:23:37.866Z,29.63
2022-12-01T17:26:13.671Z,30.17
2022-12-01T17:28:43.715Z,30.82
2022-12-01T17:31:14.206Z,31.40
2022-12-01T17:33:44.198Z,32.17
2022-12-01T17:36:16.210Z,32.10
2022-12-01T17:38:47.316Z,30.63
2022-12-01T17:41:21.624Z,32.20
2022-12-01T17:43:52.220Z,32.20
2022-12-01T17:46:22.137Z,31.33
2022-12-01T17:48:51.663Z,30.65
2022-12-01T17:51:21.409Z,31.37
2022-12-01T17:53:51.514Z,32.33
2022-12-01T17:56:21.284Z,32.53
2022-12-01T17:58:51.313Z,31.05
2022-12-01T18:01:26.791Z,32.03
2022-12-01T18:03:53.131Z,33.23
2022-12-01T18:06:23.359Z,30.25
2022-12-01T18:08:53.563Z,31.03
2022-12-01T18:11:24.132Z,33.88
2022-12-01T18:13:54.801Z,33.65
2022-12-01T18:16:30.125Z,31.45
2022-12-01T18:19:01.038Z,31.87
2022-12-01T18:21:31.129Z,29.77
2022-12-01T18:24:03.026Z,30.60
2022-12-01T18:26:35.542Z,29.37
2022-12-01T18:29:08.344Z,28.37
2022-12-01T18:31:38.437Z,29.13
2022-12-01T18:34:11.279Z,29.02
2022-12-01T18:36:41.877Z,28.20
2022-12-01T18:39:12.553Z,29.63
2022-12-01T18:41:42.842Z,28.02
2022-12-01T18:44:15.030Z,29.34
2022-12-01T18:46:44.916Z,27.47
2022-12-01T18:49:14.967Z,29.57
2022-12-01T18:51:44.774Z,28.17
2022-12-01T18:54:16.857Z,28.20
2022-12-01T18:56:46.691Z,28.87
2022-12-01T18:59:18.299Z,29.92
2022-12-01T19:01:48.621Z,29.32
2022-12-01T19:04:18.869Z,29.07
2022-12-01T19:06:48.602Z,27.97
2022-12-01T19:09:18.817Z,28.35
2022-12-01T19:11:48.560Z,28.20
2022-12-01T19:14:20.241Z,28.30
2022-12-01T19:16:50.331Z,29.42
2022-12-01T19:19:20.452Z,28.17
2022-12-01T19:21:51.028Z,27.20
2022-12-01T19:24:21.930Z,26.35
2022-12-01T19:26:51.708Z,26.00
2022-12-01T19:29:21.761Z,26.52
2022-12-01T19:31:51.632Z,25.70
2022-12-01T19:34:22.085Z,25.43
2022-12-01T19:36:53.502Z,25.43
2022-12-01T19:39:24.548Z,26.10
2022-12-01T19:41:54.558Z,25.07
2022-12-01T19:44:24.086Z,25.60
2022-12-01T19:46:53.833Z,26.17
2022-12-01T19:49:23.871Z,26.97
2022-12-01T19:51:53.608Z,25.27
2022-12-01T19:54:23.746Z,27.07
2022-12-01T19:56:53.779Z,26.42
2022-12-01T19:59:23.838Z,26.02
2022-12-01T20:01:53.662Z,28.30
2022-12-01T20:04:24.652Z,28.80
2022-12-01T20:06:54.432Z,28.57
2022-12-01T20:09:24.180Z,30.17
2022-12-01T20:11:54.980Z,33.90
2022-12-01T20:14:24.652Z,32.60
2022-12-01T20:16:56.558Z,32.87
2022-12-01T20:19:26.443Z,33.20
2022-12-01T20:21:56.182Z,34.27
2022-12-01T20:24:25.766Z,32.30
2022-12-01T20:26:57.746Z,32.97
2022-12-01T20:29:29.270Z,33.00
2022-12-01T20:32:01.363Z,33.18
2022-12-01T20:34:34.509Z,33.83
2022-12-01T20:37:04.613Z,34.83
2022-12-01T20:39:36.103Z,34.37
2022-12-01T20:42:06.556Z,35.23
2022-12-01T20:44:37.140Z,35.03
2022-12-01T20:47:07.277Z,36.03
2022-12-01T20:49:37.010Z,35.37
2022-12-01T20:52:06.776Z,39.33
2022-12-01T20:54:36.532Z,36.03
2022-12-01T20:57:06.302Z,37.03
2022-12-01T20:59:36.423Z,37.90
2022-12-01T21:02:06.333Z,38.00
2022-12-01T21:04:36.145Z,37.08
2022-12-01T21:07:06.210Z,36.60
2022-12-01T21:09:35.944Z,38.87
2022-12-01T21:12:26.388Z,39.03
2022-12-01T21:14:59.163Z,37.80
2022-12-01T21:17:40.381Z,39.77
2022-12-01T21:20:27.305Z,37.90
2022-12-01T21:25:27.215Z,38.48
2022-12-01T21:28:00.885Z,38.63
2022-12-01T21:30:30.907Z,41.27
2022-12-01T21:33:03.692Z,40.80
2022-12-01T21:35:33.725Z,38.45
2022-12-01T21:38:06.572Z,38.17
2022-12-01T21:40:36.331Z,39.93
2022-12-01T21:43:18.699Z,38.60
2022-12-01T21:46:00.307Z,38.47
2022-12-01T21:48:32.860Z,40.10
2022-12-01T21:51:05.385Z,37.97
2022-12-01T21:53:37.896Z,40.17
2022-12-01T21:56:10.688Z,39.10
2022-12-01T21:58:40.514Z,39.87
2022-12-01T22:01:30.428Z,39.00
2022-12-01T22:04:02.712Z,37.00
2022-12-01T22:06:45.315Z,38.80
2022-12-01T22:09:26.524Z,40.57
2022-12-01T22:12:10.816Z,41.03
2022-12-01T22:14:40.674Z,39.33
2022-12-01T22:17:19.183Z,40.13
2022-12-01T22:19:57.776Z,39.17
2022-12-01T22:22:29.758Z,39.50
2022-12-01T22:25:23.338Z,40.03
2022-12-01T22:27:53.237Z,39.67
2022-12-01T22:30:24.715Z,38.40
2022-12-01T22:33:05.815Z,39.47
2022-12-01T22:35:41.920Z,38.47
2022-12-01T22:38:26.605Z,40.60
2022-12-01T22:41:04.964Z,40.13
2022-12-01T22:43:43.602Z,39.57
2022-12-01T22:46:35.388Z,40.15
2022-12-01T22:49:18.533Z,40.20
2022-12-01T22:51:53.654Z,40.40
2022-12-01T22:54:29.041Z,41.20
2022-12-01T22:57:10.071Z,41.73
2022-12-01T22:59:42.532Z,41.10
2022-12-01T23:02:23.292Z,40.05
2022-12-01T23:04:56.159Z,42.37
2022-12-01T23:07:37.197Z,42.62
2022-12-01T23:10:09.964Z,41.90
2022-12-01T23:12:40.488Z,42.48
2022-12-01T23:15:33.909Z,43.43
2022-12-01T23:18:15.605Z,44.10
2022-12-01T23:20:53.884Z,42.53
2022-12-01T23:23:29.534Z,46.13
2022-12-01T23:26:01.654Z,45.85
2022-12-01T23:28:32.127Z,45.47
2022-12-01T23:31:02.120Z,43.17
2022-12-01T23:33:34.771Z,44.80
2022-12-01T23:36:17.223Z,46.83
2022-12-01T23:38:49.758Z,44.97
2022-12-01T23:41:25.980Z,46.07
2022-12-01T23:43:56.815Z,45.20
2022-12-01T23:46:27.921Z,45.80
2022-12-01T23:49:00.709Z,46.50
2022-12-01T23:51:33.159Z,46.17
2022-12-01T23:54:11.477Z,45.53
2022-12-01T23:56:41.410Z,42.03
2022-12-01T23:59:13.963Z,41.70
